Time;durP1;ratioP1;P1;durP2;ratioP2;P2;SDS_P1;SDS_P2;PMS_P1;PMS_P2;Temp;Humidity;BMP_temperature;BMP_pressure;BME280_temperature;BME280_humidity;BME280_pressure;Samples;Min_cycle;Max_cycle;Signal;HPM_P1;HPM_P2
2023/09/27 00:01:14;;;;;;;;;;;24.60;99.90;;;;;;5032912;28;20410;-48
2023/09/27 00:03:42;;;;;;;;;;;24.60;99.90;;;;;;5032893;28;19952;-48
2023/09/27 00:06:07;;;;;;;;;;;24.60;99.90;;;;;;5032440;28;19912;-48
2023/09/27 00:08:33;;;;;;;;;;;24.60;99.90;;;;;;5013174;28;19906;-48
2023/09/27 00:10:59;;;;;;;;;;;24.60;99.90;;;;;;5011447;28;19933;-49
2023/09/27 00:13:24;;;;;;;;;;;24.60;99.90;;;;;;5022430;28;20348;-48
2023/09/27 00:15:50;;;;;;;;;;;24.60;99.90;;;;;;5031774;28;19916;-48
2023/09/27 00:18:16;;;;;;;;;;;24.60;99.90;;;;;;5031162;28;19905;-49
2023/09/27 00:20:41;;;;;;;;;;;24.60;99.90;;;;;;5032504;28;19905;-48
2023/09/27 00:23:08;;;;;;;;;;;24.60;99.90;;;;;;5032597;28;19951;-48
2023/09/27 00:25:33;;;;;;;;;;;24.60;99.90;;;;;;5032581;28;19951;-48
2023/09/27 00:27:59;;;;;;;;;;;24.60;99.90;;;;;;5031652;28;20355;-49
2023/09/27 00:30:24;;;;;;;;;;;24.60;99.90;;;;;;5032262;28;19915;-48
2023/09/27 00:32:51;;;;;;;;;;;24.60;99.90;;;;;;5015018;28;19947;-48
2023/09/27 00:35:21;;;;;;;;;;;24.60;99.90;;;;;;5032760;28;19913;-49
2023/09/27 00:37:48;;;;;;;;;;;24.60;99.90;;;;;;5032786;28;19905;-48
2023/09/27 00:40:17;;;;;;;;;;;24.60;99.90;;;;;;5032412;28;20329;-48
2023/09/27 00:42:42;;;;;;;;;;;24.50;99.90;;;;;;5032181;28;20003;-49
2023/09/27 00:45:08;;;;;;;;;;;24.50;99.90;;;;;;5032185;28;19959;-49
2023/09/27 00:47:35;;;;;;;;;;;24.50;99.90;;;;;;5032209;28;19937;-49
2023/09/27 00:50:01;;;;;;;;;;;24.50;99.90;;;;;;5032495;28;19944;-48
2023/09/27 00:52:27;;;;;;;;;;;24.50;99.90;;;;;;5032407;28;19932;-48
2023/09/27 00:54:53;;;;;;;;;;;24.50;99.90;;;;;;5032271;28;19909;-49
2023/09/27 00:57:18;;;;;;;;;;;24.50;99.90;;;;;;5032617;28;19911;-49
2023/09/27 00:59:45;;;;;;;;;;;24.40;99.90;;;;;;5032396;28;19995;-49
2023/09/27 01:02:12;;;;;;;;;;;24.50;99.90;;;;;;5032559;28;19917;-49
2023/09/27 01:04:39;;;;;;;;;;;24.40;99.90;;;;;;5032783;28;19905;-49
2023/09/27 01:07:04;;;;;;;;;;;24.40;99.90;;;;;;5032292;28;20043;-49
2023/09/27 01:09:31;;;;;;;;;;;24.40;99.90;;;;;;5032272;28;20382;-48
2023/09/27 01:11:56;;;;;;;;;;;24.40;99.90;;;;;;5032296;28;19935;-49
2023/09/27 01:14:22;;;;;;;;;;;24.40;99.90;;;;;;5032379;28;19999;-49
2023/09/27 01:16:48;;;;;;;;;;;24.30;99.90;;;;;;5032229;28;19905;-49
2023/09/27 01:19:13;;;;;;;;;;;24.40;99.90;;;;;;5032022;28;19909;-49
2023/09/27 01:21:39;;;;;;;;;;;24.30;99.90;;;;;;5032024;28;19919;-48
2023/09/27 01:24:06;;;;;;;;;;;24.30;99.90;;;;;;5032078;28;20351;-49
2023/09/27 01:26:33;;;;;;;;;;;24.30;99.90;;;;;;5032139;28;19905;-49
2023/09/27 01:28:59;;;;;;;;;;;24.30;99.90;;;;;;5032110;28;20275;-48
2023/09/27 01:31:25;;;;;;;;;;;24.30;99.90;;;;;;5031963;28;19906;-49
2023/09/27 01:33:51;;;;;;;;;;;24.30;99.90;;;;;;5032147;28;19905;-49
2023/09/27 01:36:16;;;;;;;;;;;24.30;99.90;;;;;;5014324;28;19912;-48
2023/09/27 01:38:42;;;;;;;;;;;24.30;99.90;;;;;;5031997;28;19905;-49
2023/09/27 01:41:08;;;;;;;;;;;24.20;99.90;;;;;;5034790;28;19913;-49
2023/09/27 01:43:34;;;;;;;;;;;24.20;99.90;;;;;;5017602;28;20004;-49
2023/09/27 01:45:59;;;;;;;;;;;24.20;99.90;;;;;;5035134;28;19968;-48
2023/09/27 01:48:25;;;;;;;;;;;24.20;99.90;;;;;;5035537;28;19905;-48
2023/09/27 01:50:50;;;;;;;;;;;24.20;99.90;;;;;;5035553;28;19905;-49
2023/09/27 01:53:17;;;;;;;;;;;24.20;99.90;;;;;;5035288;28;19905;-49
2023/09/27 01:55:42;;;;;;;;;;;24.10;99.90;;;;;;5035055;28;19955;-48
2023/09/27 01:58:08;;;;;;;;;;;24.20;99.90;;;;;;5035340;28;19905;-48
2023/09/27 02:00:35;;;;;;;;;;;24.10;99.90;;;;;;5035473;28;19905;-49
2023/09/27 02:03:02;;;;;;;;;;;24.10;99.90;;;;;;5017331;28;20294;-49
2023/09/27 02:05:28;;;;;;;;;;;24.10;99.90;;;;;;5035089;28;19951;-50
2023/09/27 02:07:54;;;;;;;;;;;24.10;99.90;;;;;;5035185;28;19959;-49
2023/09/27 02:10:20;;;;;;;;;;;24.10;99.90;;;;;;5035076;28;20325;-49
2023/09/27 02:12:45;;;;;;;;;;;24.10;99.90;;;;;;5017144;28;19952;-48
2023/09/27 02:15:12;;;;;;;;;;;24.10;99.90;;;;;;5034882;28;19912;-48
2023/09/27 02:17:41;;;;;;;;;;;24.10;99.90;;;;;;5034819;28;19951;-50
2023/09/27 02:20:11;;;;;;;;;;;24.00;99.90;;;;;;5034671;28;19905;-48
2023/09/27 02:22:37;;;;;;;;;;;24.10;99.90;;;;;;5034578;28;19913;-48
2023/09/27 02:25:05;;;;;;;;;;;24.10;99.90;;;;;;5034801;28;19911;-48
2023/09/27 02:27:31;;;;;;;;;;;24.10;99.90;;;;;;5034658;28;19940;-48
2023/09/27 02:29:56;;;;;;;;;;;24.10;99.90;;;;;;5034816;28;19905;-49
2023/09/27 02:32:22;;;;;;;;;;;24.10;99.90;;;;;;5034608;28;19912;-49
2023/09/27 02:34:47;;;;;;;;;;;24.10;99.90;;;;;;5034464;28;19909;-50
2023/09/27 02:37:15;;;;;;;;;;;24.10;99.90;;;;;;5034493;28;19905;-49
2023/09/27 02:39:42;;;;;;;;;;;24.20;99.90;;;;;;5034301;28;20355;-49
2023/09/27 02:42:08;;;;;;;;;;;24.10;99.90;;;;;;5016565;28;19913;-50
2023/09/27 02:44:34;;;;;;;;;;;24.10;99.90;;;;;;5034397;28;19911;-49
2023/09/27 02:46:59;;;;;;;;;;;24.10;99.90;;;;;;5016401;28;20423;-49
2023/09/27 02:49:25;;;;;;;;;;;24.20;99.90;;;;;;5034461;28;20000;-49
2023/09/27 02:51:53;;;;;;;;;;;24.10;99.90;;;;;;5033325;28;20302;-49
2023/09/27 02:54:19;;;;;;;;;;;24.20;99.90;;;;;;5033999;28;20379;-49
2023/09/27 02:56:45;;;;;;;;;;;24.20;99.90;;;;;;5034037;28;20445;-49
2023/09/27 02:59:11;;;;;;;;;;;24.20;99.90;;;;;;5034081;28;19905;-49
2023/09/27 03:01:40;;;;;;;;;;;24.20;99.90;;;;;;5034264;28;19917;-50
2023/09/27 03:04:06;;;;;;;;;;;24.20;99.90;;;;;;5034005;28;19905;-49
2023/09/27 03:06:32;;;;;;;;;;;24.20;99.90;;;;;;5033965;28;19911;-49
2023/09/27 03:08:58;;;;;;;;;;;24.20;99.90;;;;;;5033418;28;20351;-50
2023/09/27 03:11:24;;;;;;;;;;;24.20;99.90;;;;;;5034408;28;19962;-49
2023/09/27 03:13:50;;;;;;;;;;;24.20;99.90;;;;;;5049486;28;19909;-49
2023/09/27 03:16:15;;;;;;;;;;;24.20;99.90;;;;;;5048214;28;20374;-49
2023/09/27 03:18:41;;;;;;;;;;;24.20;99.90;;;;;;5046378;28;20286;-49
2023/09/27 03:21:06;;;;;;;;;;;24.20;99.90;;;;;;5015737;28;19912;-49
2023/09/27 03:23:32;;;;;;;;;;;24.20;99.90;;;;;;5048943;28;20410;-49
2023/09/27 03:25:58;;;;;;;;;;;24.20;99.90;;;;;;5035569;28;19905;-50
2023/09/27 03:28:23;;;;;;;;;;;24.20;99.90;;;;;;5040991;28;20347;-49
2023/09/27 03:30:49;;;;;;;;;;;24.20;99.90;;;;;;5033026;28;19905;-49
2023/09/27 03:33:15;;;;;;;;;;;24.20;99.90;;;;;;5032865;28;19969;-50
2023/09/27 03:35:41;;;;;;;;;;;24.20;99.90;;;;;;5046166;28;19905;-50
2023/09/27 03:38:07;;;;;;;;;;;24.20;99.90;;;;;;5044792;28;19911;-49
2023/09/27 03:40:32;;;;;;;;;;;24.20;99.90;;;;;;5052066;28;19909;-49
2023/09/27 03:42:58;;;;;;;;;;;24.20;99.90;;;;;;5051356;28;19919;-49
2023/09/27 03:45:24;;;;;;;;;;;24.30;99.90;;;;;;5053141;28;19948;-50
2023/09/27 03:47:49;;;;;;;;;;;24.30;99.90;;;;;;5052658;28;20359;-50
2023/09/27 03:50:15;;;;;;;;;;;24.20;99.90;;;;;;5034884;28;20309;-49
2023/09/27 03:52:41;;;;;;;;;;;24.20;99.90;;;;;;5052936;28;19905;-49
2023/09/27 03:55:10;;;;;;;;;;;24.20;99.90;;;;;;5052922;28;19905;-50
2023/09/27 03:57:35;;;;;;;;;;;24.20;99.90;;;;;;5052927;28;20322;-49
2023/09/27 04:00:06;;;;;;;;;;;24.30;99.90;;;;;;5053090;28;19936;-50
2023/09/27 04:02:32;;;;;;;;;;;24.30;99.90;;;;;;5052476;28;19967;-50
2023/09/27 04:04:58;;;;;;;;;;;24.40;99.90;;;;;;5053338;28;19952;-50
2023/09/27 04:07:24;;;;;;;;;;;24.40;99.90;;;;;;5052827;28;19905;-50
2023/09/27 04:09:49;;;;;;;;;;;24.40;99.90;;;;;;5052692;28;19905;-50
2023/09/27 04:12:15;;;;;;;;;;;24.50;99.90;;;;;;5052711;28;19904;-50
2023/09/27 04:14:41;;;;;;;;;;;24.50;99.90;;;;;;5052696;28;20252;-50
2023/09/27 04:17:06;;;;;;;;;;;24.50;99.90;;;;;;5052575;28;20337;-50
2023/09/27 04:19:33;;;;;;;;;;;24.60;99.90;;;;;;5052837;28;19932;-50
2023/09/27 04:21:59;;;;;;;;;;;24.60;99.90;;;;;;5052801;28;19913;-50
2023/09/27 04:24:25;;;;;;;;;;;24.60;99.90;;;;;;5052607;28;19962;-50
2023/09/27 04:26:51;;;;;;;;;;;24.70;99.90;;;;;;5052614;28;20197;-49
2023/09/27 04:29:16;;;;;;;;;;;24.70;99.90;;;;;;5052521;28;19927;-49
2023/09/27 04:31:42;;;;;;;;;;;24.70;99.90;;;;;;5052434;28;19905;-50
2023/09/27 04:34:07;;;;;;;;;;;24.70;99.90;;;;;;5034631;28;19912;-50
2023/09/27 04:36:33;;;;;;;;;;;24.80;99.90;;;;;;5052600;28;20366;-49
2023/09/27 04:38:59;;;;;;;;;;;24.80;99.90;;;;;;5052643;28;19905;-49
2023/09/27 04:41:24;;;;;;;;;;;24.80;99.90;;;;;;5052414;28;19964;-50
2023/09/27 04:43:50;;;;;;;;;;;24.80;99.90;;;;;;5052321;28;19912;-50
2023/09/27 04:46:17;;;;;;;;;;;24.80;99.90;;;;;;5052306;28;20379;-49
2023/09/27 04:48:43;;;;;;;;;;;24.80;99.90;;;;;;5052263;28;19905;-50
2023/09/27 04:51:09;;;;;;;;;;;24.80;99.90;;;;;;5052367;28;20054;-50
2023/09/27 04:53:38;;;;;;;;;;;24.80;99.90;;;;;;5052245;28;19904;-50
2023/09/27 04:56:05;;;;;;;;;;;24.80;99.90;;;;;;5052300;28;20331;-49
2023/09/27 04:58:30;;;;;;;;;;;24.80;99.90;;;;;;5052316;28;19947;-50
2023/09/27 05:00:56;;;;;;;;;;;24.80;99.90;;;;;;5045113;28;19968;-50
2023/09/27 05:03:21;;;;;;;;;;;24.80;99.90;;;;;;5031354;28;19905;-50
2023/09/27 05:05:47;;;;;;;;;;;24.80;99.90;;;;;;5032312;28;20406;-50
2023/09/27 05:08:13;;;;;;;;;;;24.80;99.90;;;;;;5032267;28;19909;-50
2023/09/27 05:10:38;;;;;;;;;;;24.80;99.90;;;;;;5031397;28;19905;-50
2023/09/27 05:13:04;;;;;;;;;;;24.80;99.90;;;;;;5032471;28;19927;-50
2023/09/27 05:15:31;;;;;;;;;;;24.80;99.90;;;;;;5034411;28;19905;-49
2023/09/27 05:17:57;;;;;;;;;;;24.70;99.90;;;;;;5035940;28;19905;-50
2023/09/27 05:20:23;;;;;;;;;;;24.70;99.90;;;;;;5035868;28;20367;-49
2023/09/27 05:22:49;;;;;;;;;;;24.70;99.90;;;;;;5018037;28;20295;-50
2023/09/27 05:25:14;;;;;;;;;;;24.70;99.90;;;;;;5035810;28;19905;-49
2023/09/27 05:27:40;;;;;;;;;;;24.70;99.90;;;;;;5035823;28;19905;-50
2023/09/27 05:30:11;;;;;;;;;;;24.70;99.90;;;;;;5018142;28;20386;-50
2023/09/27 05:32:37;;;;;;;;;;;24.70;99.90;;;;;;5035579;28;20310;-50
2023/09/27 05:35:04;;;;;;;;;;;24.70;99.90;;;;;;5035845;28;19988;-50
2023/09/27 05:37:33;;;;;;;;;;;24.70;99.90;;;;;;5035680;28;20382;-50
2023/09/27 05:39:59;;;;;;;;;;;24.70;99.90;;;;;;5035578;28;20355;-50
2023/09/27 05:42:24;;;;;;;;;;;24.70;99.90;;;;;;5035416;28;19932;-50
2023/09/27 05:44:50;;;;;;;;;;;24.70;99.90;;;;;;5035463;28;19905;-50
2023/09/27 05:47:16;;;;;;;;;;;24.70;99.90;;;;;;5035562;28;19905;-50
2023/09/27 05:49:42;;;;;;;;;;;24.70;99.90;;;;;;5035302;28;19927;-49
2023/09/27 05:52:12;;;;;;;;;;;24.70;99.90;;;;;;5035411;28;20323;-48
2023/09/27 05:54:41;;;;;;;;;;;24.70;99.90;;;;;;5035250;28;20255;-48
2023/09/27 05:57:06;;;;;;;;;;;24.70;99.90;;;;;;5035314;28;20363;-48
2023/09/27 05:59:36;;;;;;;;;;;24.70;99.90;;;;;;5035125;28;19941;-48
2023/09/27 06:02:02;;;;;;;;;;;24.70;99.90;;;;;;5017137;28;20003;-48
2023/09/27 06:04:27;;;;;;;;;;;24.70;99.90;;;;;;5035074;28;20000;-48
2023/09/27 06:06:53;;;;;;;;;;;24.80;99.90;;;;;;5034749;28;20263;-48
2023/09/27 06:09:19;;;;;;;;;;;24.70;99.90;;;;;;5034849;28;19905;-49
2023/09/27 06:11:46;;;;;;;;;;;24.70;99.90;;;;;;5034712;28;19905;-48
2023/09/27 06:14:12;;;;;;;;;;;24.70;99.90;;;;;;5034833;28;19901;-49
2023/09/27 06:16:38;;;;;;;;;;;24.80;99.90;;;;;;5017240;28;19906;-48
2023/09/27 06:19:04;;;;;;;;;;;24.80;99.90;;;;;;5034807;28;19905;-49
2023/09/27 06:21:30;;;;;;;;;;;24.80;99.90;;;;;;5034626;28;19920;-49
2023/09/27 06:23:55;;;;;;;;;;;24.80;99.90;;;;;;5034628;28;20431;-48
2023/09/27 06:26:21;;;;;;;;;;;24.80;99.90;;;;;;5033301;28;20003;-48
2023/09/27 06:28:47;;;;;;;;;;;24.80;99.90;;;;;;5034541;28;19905;-48
2023/09/27 06:31:13;;;;;;;;;;;24.80;99.90;;;;;;5034458;28;19905;-48
2023/09/27 06:33:39;;;;;;;;;;;24.80;99.90;;;;;;5034700;28;19905;-48
2023/09/27 06:36:08;;;;;;;;;;;24.90;99.90;;;;;;5034681;28;19904;-48
2023/09/27 06:38:34;;;;;;;;;;;24.80;99.90;;;;;;5034382;28;19909;-48
2023/09/27 06:41:00;;;;;;;;;;;24.90;99.90;;;;;;5034156;28;19932;-48
2023/09/27 06:43:28;;;;;;;;;;;24.90;99.90;;;;;;5034153;28;20028;-48
2023/09/27 06:45:54;;;;;;;;;;;24.80;99.90;;;;;;5034268;28;20290;-48
2023/09/27 06:48:20;;;;;;;;;;;24.90;99.90;;;;;;5034257;28;19905;-48
2023/09/27 06:50:47;;;;;;;;;;;24.90;99.90;;;;;;5034241;28;19905;-48
2023/09/27 06:53:16;;;;;;;;;;;24.90;99.90;;;;;;5034134;28;19905;-48
2023/09/27 06:55:44;;;;;;;;;;;24.90;99.90;;;;;;5034187;28;19932;-50
2023/09/27 06:58:09;;;;;;;;;;;24.90;99.90;;;;;;5034268;28;19951;-50
2023/09/27 07:00:35;;;;;;;;;;;24.90;99.90;;;;;;5033977;28;20325;-47
2023/09/27 07:03:01;;;;;;;;;;;25.00;99.90;;;;;;5033840;28;19917;-48
2023/09/27 07:05:26;;;;;;;;;;;25.00;99.90;;;;;;5033941;28;19940;-49
2023/09/27 07:07:53;;;;;;;;;;;25.00;99.90;;;;;;5015977;28;20004;-49
2023/09/27 07:10:21;;;;;;;;;;;25.00;99.90;;;;;;5034100;28;20022;-49
2023/09/27 07:12:47;;;;;;;;;;;25.00;99.90;;;;;;5033814;28;19912;-49
2023/09/27 07:15:13;;;;;;;;;;;25.00;99.90;;;;;;5033842;28;19909;-49
2023/09/27 07:17:47;;;;;;;;;;;25.00;99.90;;;;;;5033980;28;19905;-50
2023/09/27 07:20:36;;;;;;;;;;;25.00;99.90;;;;;;5033722;28;19905;-49
2023/09/27 07:23:03;;;;;;;;;;;25.00;99.90;;;;;;5032981;28;20260;-49
2023/09/27 07:25:29;;;;;;;;;;;25.00;99.90;;;;;;5033606;28;19914;-49
2023/09/27 07:27:55;;;;;;;;;;;25.00;99.90;;;;;;5033507;28;19905;-50
2023/09/27 07:30:23;;;;;;;;;;;25.10;99.90;;;;;;5033431;28;19909;-49
2023/09/27 07:32:49;;;;;;;;;;;25.10;99.90;;;;;;5033311;28;19905;-50
2023/09/27 07:35:18;;;;;;;;;;;25.10;99.90;;;;;;5033295;28;20343;-49
2023/09/27 07:37:44;;;;;;;;;;;25.10;99.90;;;;;;5032823;28;20354;-50
2023/09/27 07:40:11;;;;;;;;;;;25.10;99.90;;;;;;5033561;28;19940;-50
2023/09/27 07:42:46;;;;;;;;;;;25.20;99.90;;;;;;5033059;28;19996;-49
2023/09/27 07:45:22;;;;;;;;;;;25.20;99.90;;;;;;5033311;28;19943;-50
2023/09/27 07:47:50;;;;;;;;;;;25.20;99.90;;;;;;5033108;28;19905;-50
2023/09/27 07:50:16;;;;;;;;;;;25.20;99.90;;;;;;5033099;28;19928;-50
2023/09/27 07:52:42;;;;;;;;;;;25.20;99.90;;;;;;5033314;28;19905;-50
2023/09/27 07:55:09;;;;;;;;;;;25.30;99.90;;;;;;5032970;28;20321;-50
2023/09/27 07:57:36;;;;;;;;;;;25.30;99.90;;;;;;5032905;28;20362;-50
2023/09/27 08:00:08;;;;;;;;;;;25.30;99.90;;;;;;5032736;28;19905;-51
2023/09/27 08:02:34;;;;;;;;;;;25.40;99.90;;;;;;5032717;28;20000;-50
2023/09/27 08:05:02;;;;;;;;;;;25.40;99.90;;;;;;5032917;28;20043;-50
2023/09/27 08:07:28;;;;;;;;;;;25.50;99.90;;;;;;5032892;28;19951;-50
2023/09/27 08:09:53;;;;;;;;;;;25.50;99.90;;;;;;5032979;28;19999;-50
2023/09/27 08:12:20;;;;;;;;;;;25.60;99.90;;;;;;5032817;28;19968;-50
2023/09/27 08:14:46;;;;;;;;;;;25.60;99.90;;;;;;5032804;28;19912;-50
2023/09/27 08:17:11;;;;;;;;;;;25.70;99.90;;;;;;5033015;28;20252;-50
2023/09/27 08:19:38;;;;;;;;;;;25.80;99.90;;;;;;5032692;28;19995;-50
2023/09/27 08:22:04;;;;;;;;;;;25.80;99.90;;;;;;5032590;28;19913;-50
2023/09/27 08:24:29;;;;;;;;;;;25.80;99.90;;;;;;5032623;28;20351;-49
2023/09/27 08:26:56;;;;;;;;;;;25.90;99.90;;;;;;5032695;28;19905;-50
2023/09/27 08:29:21;;;;;;;;;;;25.90;99.90;;;;;;5014882;28;20347;-50
2023/09/27 08:31:47;;;;;;;;;;;26.00;99.90;;;;;;5032537;28;19952;-50
2023/09/27 08:34:13;;;;;;;;;;;26.00;99.90;;;;;;5032756;28;19909;-50
2023/09/27 08:36:39;;;;;;;;;;;26.00;99.90;;;;;;5032652;28;19905;-50
2023/09/27 08:39:04;;;;;;;;;;;26.10;99.90;;;;;;5032433;28;19972;-50
2023/09/27 08:41:30;;;;;;;;;;;26.10;99.90;;;;;;5032222;28;19913;-50
2023/09/27 08:43:57;;;;;;;;;;;26.20;99.90;;;;;;5032442;28;19905;-50
2023/09/27 08:46:24;;;;;;;;;;;26.20;99.90;;;;;;5032330;28;19916;-53
2023/09/27 08:48:51;;;;;;;;;;;26.20;99.90;;;;;;5032449;28;19912;-50
2023/09/27 08:51:17;;;;;;;;;;;26.30;99.90;;;;;;5036075;28;19912;-50
2023/09/27 08:53:43;;;;;;;;;;;26.30;99.90;;;;;;5036599;28;19917;-50
2023/09/27 08:56:09;;;;;;;;;;;26.30;99.90;;;;;;5018532;28;19905;-50
2023/09/27 08:58:35;;;;;;;;;;;26.40;99.90;;;;;;5036091;28;19913;-50
2023/09/27 09:01:01;;;;;;;;;;;26.40;99.90;;;;;;5036088;28;20278;-50
2023/09/27 09:03:27;;;;;;;;;;;26.50;99.90;;;;;;5036237;28;19909;-50
2023/09/27 09:05:54;;;;;;;;;;;26.50;99.90;;;;;;5036192;28;19912;-50
2023/09/27 09:08:20;;;;;;;;;;;26.60;99.90;;;;;;5036027;28;19951;-50
2023/09/27 09:10:45;;;;;;;;;;;26.60;99.90;;;;;;5036197;28;20298;-50
2023/09/27 09:13:11;;;;;;;;;;;26.70;99.90;;;;;;5035879;28;19905;-50
2023/09/27 09:15:40;;;;;;;;;;;26.70;99.90;;;;;;5018230;28;19901;-50
2023/09/27 09:18:31;;;;;;;;;;;26.80;99.90;;;;;;5018583;28;19905;-50
2023/09/27 09:20:59;;;;;;;;;;;26.80;99.90;;;;;;5035901;28;20243;-50
2023/09/27 09:23:33;;;;;;;;;;;26.90;99.90;;;;;;5035807;28;19913;-50
2023/09/27 09:26:11;;;;;;;;;;;27.00;99.90;;;;;;5035769;28;19951;-49
2023/09/27 09:28:56;;;;;;;;;;;27.00;99.90;;;;;;5035781;28;20357;-49
2023/09/27 09:31:22;;;;;;;;;;;27.10;99.90;;;;;;5035778;28;20348;-49
2023/09/27 09:34:01;;;;;;;;;;;27.20;99.90;;;;;;5035774;28;19927;-50
2023/09/27 09:36:27;;;;;;;;;;;27.30;99.90;;;;;;5035612;28;19959;-49
2023/09/27 09:39:02;;;;;;;;;;;27.30;99.90;;;;;;5035554;28;19936;-50
2023/09/27 09:41:42;;;;;;;;;;;27.30;99.90;;;;;;5035499;28;19917;-50
2023/09/27 09:44:21;;;;;;;;;;;27.40;99.90;;;;;;5035396;28;19911;-49
2023/09/27 09:46:47;;;;;;;;;;;27.40;99.90;;;;;;5035552;28;19905;-49
2023/09/27 09:49:16;;;;;;;;;;;27.50;99.90;;;;;;5035244;28;19909;-49
2023/09/27 09:51:46;;;;;;;;;;;27.50;99.90;;;;;;5035201;28;19905;-50
2023/09/27 09:54:13;;;;;;;;;;;27.60;99.90;;;;;;5017518;28;19905;-49
2023/09/27 09:56:39;;;;;;;;;;;27.60;99.90;;;;;;5035171;28;19905;-50
2023/09/27 09:59:07;;;;;;;;;;;27.60;99.90;;;;;;5035193;28;20014;-49
2023/09/27 10:01:37;;;;;;;;;;;27.60;99.90;;;;;;5034623;28;19924;-50
2023/09/27 10:04:04;;;;;;;;;;;27.60;99.90;;;;;;5035087;28;19948;-50
2023/09/27 10:06:30;;;;;;;;;;;27.60;99.90;;;;;;5034836;28;19909;-49
2023/09/27 10:08:55;;;;;;;;;;;27.70;99.90;;;;;;5035066;28;19909;-50
2023/09/27 10:11:23;;;;;;;;;;;27.70;99.90;;;;;;5034781;28;20365;-50
2023/09/27 10:13:49;;;;;;;;;;;27.70;99.90;;;;;;5017641;28;20288;-50
2023/09/27 10:16:18;;;;;;;;;;;27.70;99.90;;;;;;5016915;28;19904;-50
2023/09/27 10:18:46;;;;;;;;;;;27.80;99.90;;;;;;5034818;28;20378;-50
2023/09/27 10:21:12;;;;;;;;;;;27.80;99.90;;;;;;5034657;28;19917;-50
2023/09/27 10:23:52;;;;;;;;;;;27.90;99.90;;;;;;5034388;28;20389;-50
2023/09/27 10:26:27;;;;;;;;;;;27.90;99.90;;;;;;5034698;28;19905;-50
2023/09/27 10:29:03;;;;;;;;;;;27.90;99.90;;;;;;5034553;28;19988;-50
2023/09/27 10:31:38;;;;;;;;;;;28.00;99.90;;;;;;5034544;28;19905;-50
2023/09/27 10:34:24;;;;;;;;;;;28.00;99.90;;;;;;5034532;28;19916;-51
2023/09/27 10:36:49;;;;;;;;;;;28.10;99.90;;;;;;5006438;28;19909;-50
2023/09/27 10:39:15;;;;;;;;;;;28.20;99.90;;;;;;5034364;28;19905;-50
2023/09/27 10:41:44;;;;;;;;;;;28.30;99.90;;;;;;5034207;28;19920;-50
2023/09/27 10:44:09;;;;;;;;;;;28.30;99.90;;;;;;5034315;28;19905;-50
2023/09/27 10:46:42;;;;;;;;;;;28.30;99.90;;;;;;5016348;28;19912;-53
2023/09/27 10:49:08;;;;;;;;;;;28.40;99.90;;;;;;5034109;28;20281;-50
2023/09/27 10:51:34;;;;;;;;;;;28.40;99.90;;;;;;5034142;28;19913;-50
2023/09/27 10:53:59;;;;;;;;;;;28.40;99.90;;;;;;5034152;28;19995;-50
2023/09/27 10:56:25;;;;;;;;;;;28.50;99.90;;;;;;5034012;28;19908;-50
2023/09/27 10:58:51;;;;;;;;;;;28.50;99.90;;;;;;5034127;28;19905;-50
2023/09/27 11:01:21;;;;;;;;;;;28.50;99.90;;;;;;5033788;28;20275;-51
2023/09/27 11:03:46;;;;;;;;;;;28.50;99.90;;;;;;5033924;28;19905;-50
2023/09/27 11:06:14;;;;;;;;;;;28.60;99.90;;;;;;5033642;28;19911;-50
2023/09/27 11:08:40;;;;;;;;;;;28.60;99.90;;;;;;5033780;28;20367;-50
2023/09/27 11:11:06;;;;;;;;;;;28.60;99.90;;;;;;5033881;28;19905;-50
2023/09/27 11:13:32;;;;;;;;;;;28.70;99.90;;;;;;5033073;28;19940;-50
2023/09/27 11:16:11;;;;;;;;;;;28.70;99.90;;;;;;5033650;28;20010;-51
2023/09/27 11:18:43;;;;;;;;;;;28.70;99.90;;;;;;5033565;28;19905;-50
2023/09/27 11:21:09;;;;;;;;;;;28.70;99.90;;;;;;5033370;28;19906;-50
2023/09/27 11:23:50;;;;;;;;;;;28.80;99.90;;;;;;5033442;28;19912;-50
2023/09/27 11:26:19;;;;;;;;;;;28.90;99.90;;;;;;5033483;28;19926;-50
2023/09/27 11:28:46;;;;;;;;;;;29.00;99.90;;;;;;5033440;28;19908;-50
2023/09/27 11:31:21;;;;;;;;;;;29.10;99.90;;;;;;5012530;28;19909;-49
2023/09/27 11:33:47;;;;;;;;;;;29.30;99.90;;;;;;5023777;28;20003;-49
2023/09/27 11:36:12;;;;;;;;;;;29.40;99.90;;;;;;5016105;28;20355;-49
2023/09/27 11:38:38;;;;;;;;;;;29.50;99.90;;;;;;5012999;28;20363;-49
2023/09/27 11:41:14;;;;;;;;;;;29.50;99.90;;;;;;5022279;28;19989;-50
2023/09/27 11:43:39;;;;;;;;;;;29.70;99.90;;;;;;5021559;28;19905;-49
2023/09/27 11:46:05;;;;;;;;;;;29.70;99.90;;;;;;5022003;28;19932;-49
2023/09/27 11:48:32;;;;;;;;;;;29.70;99.90;;;;;;5018332;28;19912;-57
2023/09/27 11:50:58;;;;;;;;;;;29.70;99.90;;;;;;5011755;28;19916;-50
2023/09/27 11:53:24;;;;;;;;;;;29.80;99.90;;;;;;5032731;28;20004;-49
2023/09/27 11:55:49;;;;;;;;;;;29.80;99.90;;;;;;5021517;28;19955;-50
2023/09/27 11:58:15;;;;;;;;;;;29.90;99.90;;;;;;5021470;28;20055;-49
2023/09/27 12:00:41;;;;;;;;;;;30.00;99.90;;;;;;5022968;28;20387;-50
2023/09/27 12:03:06;;;;;;;;;;;30.00;99.90;;;;;;5005060;28;19913;-50
2023/09/27 12:05:36;;;;;;;;;;;30.10;99.90;;;;;;5021425;28;20394;-50
2023/09/27 12:08:03;;;;;;;;;;;30.10;99.90;;;;;;5020664;28;19913;-50
2023/09/27 12:10:28;;;;;;;;;;;30.20;99.90;;;;;;5021197;28;19920;-49
2023/09/27 12:12:55;;;;;;;;;;;30.20;99.90;;;;;;5030199;28;19905;-49
2023/09/27 12:15:21;;;;;;;;;;;30.30;99.90;;;;;;5032320;28;19905;-50
2023/09/27 12:17:47;;;;;;;;;;;30.20;99.90;;;;;;5012430;28;20664;-50
2023/09/27 12:20:15;;;;;;;;;;;30.30;99.90;;;;;;5031969;28;19912;-50
2023/09/27 12:22:41;;;;;;;;;;;30.30;99.90;;;;;;5031545;28;19959;-50
2023/09/27 12:25:07;;;;;;;;;;;30.40;99.90;;;;;;5031431;28;19911;-49
2023/09/27 12:27:33;;;;;;;;;;;30.40;99.90;;;;;;5014320;28;20353;-49
2023/09/27 12:29:59;;;;;;;;;;;30.40;99.90;;;;;;5031721;28;19928;-49
2023/09/27 12:32:25;;;;;;;;;;;30.50;99.90;;;;;;5031511;28;19904;-49
2023/09/27 12:34:51;;;;;;;;;;;30.50;99.90;;;;;;5031086;28;19905;-49
2023/09/27 12:37:17;;;;;;;;;;;30.60;99.90;;;;;;5031814;28;19982;-47
2023/09/27 12:39:42;;;;;;;;;;;30.60;99.90;;;;;;5031643;28;19912;-49
2023/09/27 12:42:08;;;;;;;;;;;30.50;99.90;;;;;;5031244;28;19967;-49
2023/09/27 12:44:34;;;;;;;;;;;30.50;99.90;;;;;;5028201;28;19944;-49
2023/09/27 12:46:59;;;;;;;;;;;30.50;99.90;;;;;;5040491;28;19951;-49
2023/09/27 12:49:25;;;;;;;;;;;30.60;99.90;;;;;;5026327;28;19909;-48
2023/09/27 12:51:51;;;;;;;;;;;30.60;99.90;;;;;;5028842;28;19909;-48
2023/09/27 12:54:18;;;;;;;;;;;30.60;99.90;;;;;;5025718;28;19932;-49
2023/09/27 12:56:44;;;;;;;;;;;30.70;99.90;;;;;;5030163;28;20374;-48
2023/09/27 12:59:10;;;;;;;;;;;30.60;99.90;;;;;;5040193;28;19956;-48
2023/09/27 13:01:35;;;;;;;;;;;30.70;99.90;;;;;;5046922;28;20317;-49
2023/09/27 13:04:01;;;;;;;;;;;30.70;99.90;;;;;;5048466;28;19947;-48
2023/09/27 13:06:27;;;;;;;;;;;30.70;99.90;;;;;;5048211;28;19905;-48
2023/09/27 13:08:52;;;;;;;;;;;30.70;99.90;;;;;;5048230;28;19905;-48
2023/09/27 13:11:18;;;;;;;;;;;30.70;99.90;;;;;;5048040;28;20640;-48
2023/09/27 13:13:44;;;;;;;;;;;30.80;99.90;;;;;;5029016;28;20244;-49
2023/09/27 13:16:09;;;;;;;;;;;30.70;99.90;;;;;;5040250;28;19912;-48
2023/09/27 13:18:35;;;;;;;;;;;30.70;99.90;;;;;;5031297;28;19913;-48
2023/09/27 13:21:01;;;;;;;;;;;30.60;99.90;;;;;;5030960;28;19912;-47
2023/09/27 13:23:26;;;;;;;;;;;30.60;99.90;;;;;;5031328;28;19956;-48
2023/09/27 13:25:53;;;;;;;;;;;30.50;99.90;;;;;;5031342;28;19905;-48
2023/09/27 13:28:18;;;;;;;;;;;30.40;99.90;;;;;;5027888;28;19924;-48
2023/09/27 13:30:44;;;;;;;;;;;30.40;99.90;;;;;;5031472;28;19905;-48
2023/09/27 13:33:10;;;;;;;;;;;30.40;99.90;;;;;;5013091;28;19999;-49
2023/09/27 13:35:35;;;;;;;;;;;30.30;99.90;;;;;;5031487;28;19909;-49
2023/09/27 13:38:07;;;;;;;;;;;30.30;99.90;;;;;;5035031;28;20002;-48
2023/09/27 13:40:33;;;;;;;;;;;30.30;99.90;;;;;;5035036;28;19927;-49
2023/09/27 13:42:59;;;;;;;;;;;30.20;99.90;;;;;;5036648;28;19916;-48
2023/09/27 13:45:24;;;;;;;;;;;30.20;99.90;;;;;;5046585;28;20353;-48
2023/09/27 13:47:50;;;;;;;;;;;30.20;99.90;;;;;;5034139;28;19909;-48
2023/09/27 13:50:16;;;;;;;;;;;30.20;99.90;;;;;;5027698;28;20261;-48
2023/09/27 13:52:41;;;;;;;;;;;30.20;99.90;;;;;;5036479;28;20405;-50
2023/09/27 13:55:11;;;;;;;;;;;30.10;99.90;;;;;;5051795;28;20335;-49
2023/09/27 13:57:39;;;;;;;;;;;30.10;99.90;;;;;;5041035;28;20260;-49
2023/09/27 14:00:07;;;;;;;;;;;30.10;99.90;;;;;;5046719;28;19911;-49
2023/09/27 14:02:33;;;;;;;;;;;30.20;99.90;;;;;;5016130;28;19917;-49
2023/09/27 14:04:59;;;;;;;;;;;30.10;99.90;;;;;;5031610;28;19996;-49
2023/09/27 14:07:24;;;;;;;;;;;30.10;99.90;;;;;;5031734;28;19912;-49
2023/09/27 14:09:50;;;;;;;;;;;30.00;99.90;;;;;;5028415;28;19905;-49
2023/09/27 14:12:15;;;;;;;;;;;30.00;99.90;;;;;;5028928;28;19905;-47
2023/09/27 14:14:41;;;;;;;;;;;30.00;99.90;;;;;;5028485;28;19909;-52